Aspers, Pennsylvania
Current Conditions -  °F | °C
As of 8:53 PM on Friday 24 Oct 2014 (Local Time) from KTHV Reporting Station
Clear Clear  
Wind Chill: 12°   Ceiling: Unl
Heat Index: 12°   Visibility: 10mi
Dew Point:   Wind: 6mph
Humidity: 53%   Direction: 280°W
Pressure: 29.92"   Gusts: NA
Location:  39.98°N, 77.22°W
Report Text: KTHV 250053Z AUTO 28005KT 10SM CLR 12/03 A2992 RMK AO2 SLP135 T01220028
Loading
Personal Weather Stations






























Interactive Weather Map
Tropical Storm Tracking
New forecast layout! Learn more

10-Day Weather Forecast

Advertisements
Track Severe Weather on mobile